sensor_id;sensor_type;location;lat;lon;timestamp;P1;durP1;ratioP1;P2;durP2;ratioP2
82159;SDS011;71734;50.876;7.372;2024-01-30T00:00:41;12.90;;;7.13;;
82159;SDS011;71734;50.876;7.372;2024-01-30T00:03:08;13.82;;;6.88;;
82159;SDS011;71734;50.876;7.372;2024-01-30T00:05:35;17.90;;;7.40;;
82159;SDS011;71734;50.876;7.372;2024-01-30T00:08:02;12.50;;;6.68;;
82159;SDS011;71734;50.876;7.372;2024-01-30T00:10:28;14.27;;;7.20;;
82159;SDS011;71734;50.876;7.372;2024-01-30T00:12:55;12.98;;;6.82;;
82159;SDS011;71734;50.876;7.372;2024-01-30T00:15:22;13.98;;;6.32;;
82159;SDS011;71734;50.876;7.372;2024-01-30T00:17:48;14.23;;;7.07;;
82159;SDS011;71734;50.876;7.372;2024-01-30T00:20:18;13.68;;;6.85;;
82159;SDS011;71734;50.876;7.372;2024-01-30T00:22:46;12.50;;;6.65;;
82159;SDS011;71734;50.876;7.372;2024-01-30T00:25:13;14.23;;;6.82;;
82159;SDS011;71734;50.876;7.372;2024-01-30T00:27:39;16.23;;;7.22;;
82159;SDS011;71734;50.876;7.372;2024-01-30T00:30:06;13.68;;;7.03;;
82159;SDS011;71734;50.876;7.372;2024-01-30T00:32:33;13.98;;;6.70;;
82159;SDS011;71734;50.876;7.372;2024-01-30T00:35:00;12.95;;;6.63;;
82159;SDS011;71734;50.876;7.372;2024-01-30T00:37:28;13.25;;;6.88;;
82159;SDS011;71734;50.876;7.372;2024-01-30T00:39:56;14.20;;;6.95;;
82159;SDS011;71734;50.876;7.372;2024-01-30T00:42:22;12.40;;;6.65;;
82159;SDS011;71734;50.876;7.372;2024-01-30T00:44:50;14.90;;;6.28;;
82159;SDS011;71734;50.876;7.372;2024-01-30T00:47:16;14.23;;;7.00;;
82159;SDS011;71734;50.876;7.372;2024-01-30T00:49:44;13.57;;;8.98;;
82159;SDS011;71734;50.876;7.372;2024-01-30T00:52:10;12.82;;;7.10;;
82159;SDS011;71734;50.876;7.372;2024-01-30T00:54:39;13.75;;;8.02;;
82159;SDS011;71734;50.876;7.372;2024-01-30T00:57:05;12.27;;;6.90;;
82159;SDS011;71734;50.876;7.372;2024-01-30T00:59:32;14.38;;;7.07;;
82159;SDS011;71734;50.876;7.372;2024-01-30T01:01:58;13.05;;;7.28;;
82159;SDS011;71734;50.876;7.372;2024-01-30T01:04:25;13.15;;;6.82;;
82159;SDS011;71734;50.876;7.372;2024-01-30T01:06:51;13.13;;;7.07;;
82159;SDS011;71734;50.876;7.372;2024-01-30T01:09:18;12.63;;;6.72;;
82159;SDS011;71734;50.876;7.372;2024-01-30T01:11:46;12.20;;;7.15;;
82159;SDS011;71734;50.876;7.372;2024-01-30T01:14:12;13.60;;;6.50;;
82159;SDS011;71734;50.876;7.372;2024-01-30T01:16:39;12.73;;;6.53;;
82159;SDS011;71734;50.876;7.372;2024-01-30T01:19:06;12.38;;;6.60;;
82159;SDS011;71734;50.876;7.372;2024-01-30T01:21:32;15.05;;;6.68;;
82159;SDS011;71734;50.876;7.372;2024-01-30T01:23:58;11.38;;;6.10;;
82159;SDS011;71734;50.876;7.372;2024-01-30T01:26:25;13.13;;;6.28;;
82159;SDS011;71734;50.876;7.372;2024-01-30T01:28:53;12.02;;;6.35;;
82159;SDS011;71734;50.876;7.372;2024-01-30T01:31:20;14.10;;;6.45;;
82159;SDS011;71734;50.876;7.372;2024-01-30T01:33:49;12.52;;;6.53;;
82159;SDS011;71734;50.876;7.372;2024-01-30T01:36:16;14.32;;;6.50;;
82159;SDS011;71734;50.876;7.372;2024-01-30T01:38:42;13.40;;;6.53;;
82159;SDS011;71734;50.876;7.372;2024-01-30T01:41:09;13.63;;;6.60;;
82159;SDS011;71734;50.876;7.372;2024-01-30T01:43:35;13.95;;;6.78;;
82159;SDS011;71734;50.876;7.372;2024-01-30T01:46:04;14.65;;;6.40;;
82159;SDS011;71734;50.876;7.372;2024-01-30T01:48:32;12.07;;;5.75;;
82159;SDS011;71734;50.876;7.372;2024-01-30T01:50:58;12.98;;;6.03;;
82159;SDS011;71734;50.876;7.372;2024-01-30T01:53:25;13.30;;;6.50;;
82159;SDS011;71734;50.876;7.372;2024-01-30T01:55:52;13.57;;;6.22;;
82159;SDS011;71734;50.876;7.372;2024-01-30T01:58:21;12.27;;;6.53;;
82159;SDS011;71734;50.876;7.372;2024-01-30T02:00:48;11.80;;;5.53;;
82159;SDS011;71734;50.876;7.372;2024-01-30T02:03:17;14.40;;;6.10;;
82159;SDS011;71734;50.876;7.372;2024-01-30T02:05:46;12.77;;;6.28;;
82159;SDS011;71734;50.876;7.372;2024-01-30T02:08:13;12.38;;;6.30;;
82159;SDS011;71734;50.876;7.372;2024-01-30T02:10:39;14.02;;;6.07;;
82159;SDS011;71734;50.876;7.372;2024-01-30T02:13:05;13.05;;;6.10;;
82159;SDS011;71734;50.876;7.372;2024-01-30T02:15:32;12.48;;;6.20;;
82159;SDS011;71734;50.876;7.372;2024-01-30T02:17:58;13.85;;;6.32;;
82159;SDS011;71734;50.876;7.372;2024-01-30T02:20:26;15.50;;;6.85;;
82159;SDS011;71734;50.876;7.372;2024-01-30T02:22:58;13.45;;;6.45;;
82159;SDS011;71734;50.876;7.372;2024-01-30T02:25:30;12.63;;;6.75;;
82159;SDS011;71734;50.876;7.372;2024-01-30T02:27:58;13.57;;;6.15;;
82159;SDS011;71734;50.876;7.372;2024-01-30T02:30:25;12.73;;;6.10;;
82159;SDS011;71734;50.876;7.372;2024-01-30T02:32:51;13.45;;;6.10;;
82159;SDS011;71734;50.876;7.372;2024-01-30T02:35:18;12.85;;;6.15;;
82159;SDS011;71734;50.876;7.372;2024-01-30T02:37:44;12.52;;;6.28;;
82159;SDS011;71734;50.876;7.372;2024-01-30T02:40:12;14.25;;;6.70;;
82159;SDS011;71734;50.876;7.372;2024-01-30T02:42:39;14.15;;;6.68;;
82159;SDS011;71734;50.876;7.372;2024-01-30T02:45:07;12.90;;;6.40;;
82159;SDS011;71734;50.876;7.372;2024-01-30T02:47:34;13.30;;;6.53;;
82159;SDS011;71734;50.876;7.372;2024-01-30T02:50:00;13.32;;;6.63;;
82159;SDS011;71734;50.876;7.372;2024-01-30T02:52:27;11.77;;;6.18;;
82159;SDS011;71734;50.876;7.372;2024-01-30T02:54:53;12.95;;;5.97;;
82159;SDS011;71734;50.876;7.372;2024-01-30T02:57:21;13.15;;;6.50;;
82159;SDS011;71734;50.876;7.372;2024-01-30T02:59:48;14.77;;;6.88;;
82159;SDS011;71734;50.876;7.372;2024-01-30T03:02:14;12.88;;;6.22;;
82159;SDS011;71734;50.876;7.372;2024-01-30T03:04:41;12.55;;;6.07;;
82159;SDS011;71734;50.876;7.372;2024-01-30T03:07:08;12.52;;;5.97;;
82159;SDS011;71734;50.876;7.372;2024-01-30T03:09:34;12.40;;;6.63;;
82159;SDS011;71734;50.876;7.372;2024-01-30T03:12:01;12.40;;;6.32;;
82159;SDS011;71734;50.876;7.372;2024-01-30T03:14:30;13.15;;;6.47;;
82159;SDS011;71734;50.876;7.372;2024-01-30T03:16:57;13.75;;;6.18;;
82159;SDS011;71734;50.876;7.372;2024-01-30T03:19:23;14.02;;;6.40;;
82159;SDS011;71734;50.876;7.372;2024-01-30T03:21:50;12.07;;;6.13;;
82159;SDS011;71734;50.876;7.372;2024-01-30T03:24:16;13.43;;;6.18;;
82159;SDS011;71734;50.876;7.372;2024-01-30T03:26:43;14.57;;;6.57;;
82159;SDS011;71734;50.876;7.372;2024-01-30T03:29:10;14.52;;;6.57;;
82159;SDS011;71734;50.876;7.372;2024-01-30T03:31:38;11.35;;;5.88;;
82159;SDS011;71734;50.876;7.372;2024-01-30T03:34:04;12.68;;;5.88;;
82159;SDS011;71734;50.876;7.372;2024-01-30T03:36:31;10.60;;;5.60;;
82159;SDS011;71734;50.876;7.372;2024-01-30T03:38:59;14.07;;;6.68;;
82159;SDS011;71734;50.876;7.372;2024-01-30T03:41:26;12.02;;;5.68;;
82159;SDS011;71734;50.876;7.372;2024-01-30T03:43:52;12.20;;;6.07;;
82159;SDS011;71734;50.876;7.372;2024-01-30T03:46:19;13.57;;;6.32;;
82159;SDS011;71734;50.876;7.372;2024-01-30T03:48:46;13.57;;;6.07;;
82159;SDS011;71734;50.876;7.372;2024-01-30T03:51:13;14.60;;;6.25;;
82159;SDS011;71734;50.876;7.372;2024-01-30T03:53:41;11.95;;;6.00;;
82159;SDS011;71734;50.876;7.372;2024-01-30T03:56:07;14.60;;;6.40;;
82159;SDS011;71734;50.876;7.372;2024-01-30T03:58:34;12.32;;;5.78;;
82159;SDS011;71734;50.876;7.372;2024-01-30T04:01:01;12.40;;;6.20;;
82159;SDS011;71734;50.876;7.372;2024-01-30T04:03:28;12.50;;;5.55;;
82159;SDS011;71734;50.876;7.372;2024-01-30T04:05:55;12.95;;;5.95;;
82159;SDS011;71734;50.876;7.372;2024-01-30T04:08:22;11.45;;;5.82;;
82159;SDS011;71734;50.876;7.372;2024-01-30T04:10:48;15.25;;;6.30;;
82159;SDS011;71734;50.876;7.372;2024-01-30T04:13:15;16.55;;;6.40;;
82159;SDS011;71734;50.876;7.372;2024-01-30T04:15:41;13.82;;;6.20;;
82159;SDS011;71734;50.876;7.372;2024-01-30T04:18:08;11.65;;;5.72;;
82159;SDS011;71734;50.876;7.372;2024-01-30T04:20:34;12.35;;;5.55;;
82159;SDS011;71734;50.876;7.372;2024-01-30T04:23:02;10.68;;;5.63;;
82159;SDS011;71734;50.876;7.372;2024-01-30T04:25:29;12.85;;;5.57;;
82159;SDS011;71734;50.876;7.372;2024-01-30T04:27:55;12.23;;;5.80;;
82159;SDS011;71734;50.876;7.372;2024-01-30T04:30:22;11.55;;;5.57;;
82159;SDS011;71734;50.876;7.372;2024-01-30T04:32:48;12.65;;;5.85;;
82159;SDS011;71734;50.876;7.372;2024-01-30T04:35:15;13.30;;;6.47;;
82159;SDS011;71734;50.876;7.372;2024-01-30T04:37:41;12.80;;;5.57;;
82159;SDS011;71734;50.876;7.372;2024-01-30T04:40:09;12.23;;;5.53;;
82159;SDS011;71734;50.876;7.372;2024-01-30T04:42:36;12.32;;;6.40;;
82159;SDS011;71734;50.876;7.372;2024-01-30T04:45:03;12.27;;;5.90;;
82159;SDS011;71734;50.876;7.372;2024-01-30T04:47:29;12.25;;;5.40;;
82159;SDS011;71734;50.876;7.372;2024-01-30T04:49:56;13.35;;;6.03;;
82159;SDS011;71734;50.876;7.372;2024-01-30T04:52:23;13.68;;;5.90;;
82159;SDS011;71734;50.876;7.372;2024-01-30T04:54:49;14.52;;;5.55;;
82159;SDS011;71734;50.876;7.372;2024-01-30T04:57:17;13.45;;;5.72;;
82159;SDS011;71734;50.876;7.372;2024-01-30T04:59:43;12.10;;;5.50;;
82159;SDS011;71734;50.876;7.372;2024-01-30T05:02:10;10.30;;;5.32;;
82159;SDS011;71734;50.876;7.372;2024-01-30T05:04:36;11.82;;;5.68;;
82159;SDS011;71734;50.876;7.372;2024-01-30T05:07:03;11.80;;;5.72;;
82159;SDS011;71734;50.876;7.372;2024-01-30T05:09:30;12.82;;;5.72;;
82159;SDS011;71734;50.876;7.372;2024-01-30T05:11:56;14.07;;;5.70;;
82159;SDS011;71734;50.876;7.372;2024-01-30T05:14:24;11.18;;;6.05;;
82159;SDS011;71734;50.876;7.372;2024-01-30T05:16:51;14.73;;;5.97;;
82159;SDS011;71734;50.876;7.372;2024-01-30T05:19:17;11.50;;;5.78;;
82159;SDS011;71734;50.876;7.372;2024-01-30T05:21:44;10.40;;;5.43;;
82159;SDS011;71734;50.876;7.372;2024-01-30T05:24:10;13.70;;;6.40;;
82159;SDS011;71734;50.876;7.372;2024-01-30T05:26:37;13.18;;;5.72;;
82159;SDS011;71734;50.876;7.372;2024-01-30T05:29:04;13.68;;;5.88;;
82159;SDS011;71734;50.876;7.372;2024-01-30T05:31:32;11.65;;;5.15;;
82159;SDS011;71734;50.876;7.372;2024-01-30T05:33:59;11.75;;;5.45;;
82159;SDS011;71734;50.876;7.372;2024-01-30T05:36:25;13.63;;;5.82;;
82159;SDS011;71734;50.876;7.372;2024-01-30T05:38:52;12.40;;;5.68;;
82159;SDS011;71734;50.876;7.372;2024-01-30T05:41:19;15.20;;;6.30;;
82159;SDS011;71734;50.876;7.372;2024-01-30T05:43:46;12.00;;;5.72;;
82159;SDS011;71734;50.876;7.372;2024-01-30T05:46:12;11.50;;;5.68;;
82159;SDS011;71734;50.876;7.372;2024-01-30T05:48:40;10.63;;;5.57;;
82159;SDS011;71734;50.876;7.372;2024-01-30T05:51:07;12.57;;;5.55;;
82159;SDS011;71734;50.876;7.372;2024-01-30T05:53:34;11.85;;;5.47;;
82159;SDS011;71734;50.876;7.372;2024-01-30T05:56:01;11.40;;;5.47;;
82159;SDS011;71734;50.876;7.372;2024-01-30T05:58:28;13.38;;;5.90;;
82159;SDS011;71734;50.876;7.372;2024-01-30T06:00:56;12.07;;;5.70;;
82159;SDS011;71734;50.876;7.372;2024-01-30T06:03:22;12.55;;;5.93;;
82159;SDS011;71734;50.876;7.372;2024-01-30T06:05:50;13.55;;;5.72;;
82159;SDS011;71734;50.876;7.372;2024-01-30T06:08:17;12.43;;;5.07;;
82159;SDS011;71734;50.876;7.372;2024-01-30T06:10:43;14.10;;;5.75;;
82159;SDS011;71734;50.876;7.372;2024-01-30T06:13:10;11.38;;;5.63;;
82159;SDS011;71734;50.876;7.372;2024-01-30T06:15:36;12.85;;;5.63;;
82159;SDS011;71734;50.876;7.372;2024-01-30T06:18:03;12.75;;;5.82;;
82159;SDS011;71734;50.876;7.372;2024-01-30T06:20:30;12.18;;;5.90;;
82159;SDS011;71734;50.876;7.372;2024-01-30T06:22:58;11.40;;;5.43;;
82159;SDS011;71734;50.876;7.372;2024-01-30T06:25:24;13.68;;;5.63;;
82159;SDS011;71734;50.876;7.372;2024-01-30T06:27:51;12.25;;;5.60;;
82159;SDS011;71734;50.876;7.372;2024-01-30T06:30:18;12.70;;;5.50;;
82159;SDS011;71734;50.876;7.372;2024-01-30T06:32:45;11.15;;;5.72;;
82159;SDS011;71734;50.876;7.372;2024-01-30T06:35:12;14.07;;;5.75;;
82159;SDS011;71734;50.876;7.372;2024-01-30T06:37:38;14.05;;;5.70;;
82159;SDS011;71734;50.876;7.372;2024-01-30T06:40:07;12.65;;;5.85;;
82159;SDS011;71734;50.876;7.372;2024-01-30T06:42:34;12.07;;;5.55;;
82159;SDS011;71734;50.876;7.372;2024-01-30T06:45:00;13.38;;;5.65;;
82159;SDS011;71734;50.876;7.372;2024-01-30T06:47:27;13.68;;;5.50;;
82159;SDS011;71734;50.876;7.372;2024-01-30T06:49:56;11.60;;;5.35;;
82159;SDS011;71734;50.876;7.372;2024-01-30T06:52:22;10.93;;;5.50;;
82159;SDS011;71734;50.876;7.372;2024-01-30T06:54:48;11.73;;;5.80;;
82159;SDS011;71734;50.876;7.372;2024-01-30T06:57:16;11.30;;;5.60;;
82159;SDS011;71734;50.876;7.372;2024-01-30T06:59:43;14.48;;;6.15;;
82159;SDS011;71734;50.876;7.372;2024-01-30T07:02:09;12.07;;;5.18;;
82159;SDS011;71734;50.876;7.372;2024-01-30T07:04:36;15.65;;;6.30;;
82159;SDS011;71734;50.876;7.372;2024-01-30T07:07:04;12.88;;;5.07;;
82159;SDS011;71734;50.876;7.372;2024-01-30T07:09:36;12.63;;;5.90;;
82159;SDS011;71734;50.876;7.372;2024-01-30T07:12:03;14.15;;;5.65;;
82159;SDS011;71734;50.876;7.372;2024-01-30T07:14:32;13.45;;;6.07;;
82159;SDS011;71734;50.876;7.372;2024-01-30T07:16:59;12.73;;;6.28;;
82159;SDS011;71734;50.876;7.372;2024-01-30T07:19:25;14.23;;;5.97;;
82159;SDS011;71734;50.876;7.372;2024-01-30T07:21:52;12.50;;;6.07;;
82159;SDS011;71734;50.876;7.372;2024-01-30T07:24:18;12.18;;;5.70;;
82159;SDS011;71734;50.876;7.372;2024-01-30T07:26:45;13.10;;;6.60;;
82159;SDS011;71734;50.876;7.372;2024-01-30T07:29:11;14.05;;;7.10;;
82159;SDS011;71734;50.876;7.372;2024-01-30T07:31:39;12.23;;;6.18;;
82159;SDS011;71734;50.876;7.372;2024-01-30T07:34:06;13.45;;;6.03;;
82159;SDS011;71734;50.876;7.372;2024-01-30T07:36:32;14.45;;;5.80;;
82159;SDS011;71734;50.876;7.372;2024-01-30T07:38:59;13.15;;;6.80;;
82159;SDS011;71734;50.876;7.372;2024-01-30T07:41:25;12.32;;;6.13;;
82159;SDS011;71734;50.876;7.372;2024-01-30T07:43:52;15.80;;;6.25;;
82159;SDS011;71734;50.876;7.372;2024-01-30T07:46:18;13.05;;;6.20;;
82159;SDS011;71734;50.876;7.372;2024-01-30T07:48:46;12.75;;;5.93;;
82159;SDS011;71734;50.876;7.372;2024-01-30T07:51:13;12.65;;;5.88;;
82159;SDS011;71734;50.876;7.372;2024-01-30T07:53:40;12.45;;;6.10;;
82159;SDS011;71734;50.876;7.372;2024-01-30T07:56:06;12.65;;;5.78;;
82159;SDS011;71734;50.876;7.372;2024-01-30T07:58:33;12.43;;;5.72;;
82159;SDS011;71734;50.876;7.372;2024-01-30T08:01:00;13.57;;;6.75;;
82159;SDS011;71734;50.876;7.372;2024-01-30T08:03:26;16.00;;;6.88;;
82159;SDS011;71734;50.876;7.372;2024-01-30T08:05:54;12.90;;;6.45;;
82159;SDS011;71734;50.876;7.372;2024-01-30T08:08:21;12.13;;;5.95;;
82159;SDS011;71734;50.876;7.372;2024-01-30T08:10:48;18.15;;;6.30;;
82159;SDS011;71734;50.876;7.372;2024-01-30T08:13:14;13.57;;;6.50;;
82159;SDS011;71734;50.876;7.372;2024-01-30T08:15:41;12.18;;;5.90;;
82159;SDS011;71734;50.876;7.372;2024-01-30T08:18:07;12.43;;;5.57;;
82159;SDS011;71734;50.876;7.372;2024-01-30T08:20:34;13.45;;;5.60;;
82159;SDS011;71734;50.876;7.372;2024-01-30T08:23:02;12.88;;;6.03;;
82159;SDS011;71734;50.876;7.372;2024-01-30T08:25:29;11.45;;;5.40;;
82159;SDS011;71734;50.876;7.372;2024-01-30T08:27:55;13.63;;;6.18;;
82159;SDS011;71734;50.876;7.372;2024-01-30T08:30:22;12.00;;;5.55;;
82159;SDS011;71734;50.876;7.372;2024-01-30T08:32:48;13.30;;;6.28;;
82159;SDS011;71734;50.876;7.372;2024-01-30T08:35:15;12.73;;;5.80;;
82159;SDS011;71734;50.876;7.372;2024-01-30T08:37:41;12.48;;;6.32;;
82159;SDS011;71734;50.876;7.372;2024-01-30T08:40:10;13.65;;;6.53;;
82159;SDS011;71734;50.876;7.372;2024-01-30T08:42:36;13.23;;;6.50;;
82159;SDS011;71734;50.876;7.372;2024-01-30T08:45:03;13.48;;;5.97;;
82159;SDS011;71734;50.876;7.372;2024-01-30T08:47:30;12.55;;;5.78;;
82159;SDS011;71734;50.876;7.372;2024-01-30T08:49:58;11.60;;;5.40;;
82159;SDS011;71734;50.876;7.372;2024-01-30T08:52:24;13.00;;;5.63;;
82159;SDS011;71734;50.876;7.372;2024-01-30T08:54:51;12.20;;;5.82;;
82159;SDS011;71734;50.876;7.372;2024-01-30T08:57:19;13.70;;;5.90;;
82159;SDS011;71734;50.876;7.372;2024-01-30T08:59:45;12.68;;;5.90;;
82159;SDS011;71734;50.876;7.372;2024-01-30T09:02:13;12.30;;;5.95;;
82159;SDS011;71734;50.876;7.372;2024-01-30T09:04:41;13.52;;;6.20;;
82159;SDS011;71734;50.876;7.372;2024-01-30T09:07:08;13.25;;;5.75;;
82159;SDS011;71734;50.876;7.372;2024-01-30T09:09:35;12.55;;;6.10;;
82159;SDS011;71734;50.876;7.372;2024-01-30T09:12:04;12.60;;;6.15;;
82159;SDS011;71734;50.876;7.372;2024-01-30T09:14:35;12.18;;;5.40;;
82159;SDS011;71734;50.876;7.372;2024-01-30T09:17:02;15.23;;;6.00;;
82159;SDS011;71734;50.876;7.372;2024-01-30T09:19:29;13.70;;;6.05;;
82159;SDS011;71734;50.876;7.372;2024-01-30T09:21:56;12.52;;;5.80;;
82159;SDS011;71734;50.876;7.372;2024-01-30T09:24:22;11.05;;;5.45;;
82159;SDS011;71734;50.876;7.372;2024-01-30T09:26:49;12.63;;;5.80;;
82159;SDS011;71734;50.876;7.372;2024-01-30T09:29:17;13.05;;;6.00;;
82159;SDS011;71734;50.876;7.372;2024-01-30T09:31:49;13.98;;;5.88;;
82159;SDS011;71734;50.876;7.372;2024-01-30T09:34:15;13.07;;;6.28;;
82159;SDS011;71734;50.876;7.372;2024-01-30T09:36:41;11.60;;;5.30;;
82159;SDS011;71734;50.876;7.372;2024-01-30T09:39:08;12.30;;;6.13;;
82159;SDS011;71734;50.876;7.372;2024-01-30T09:41:35;11.38;;;5.45;;
82159;SDS011;71734;50.876;7.372;2024-01-30T09:44:21;12.98;;;6.20;;
82159;SDS011;71734;50.876;7.372;2024-01-30T09:46:50;12.48;;;5.80;;
82159;SDS011;71734;50.876;7.372;2024-01-30T09:49:17;10.55;;;5.90;;
82159;SDS011;71734;50.876;7.372;2024-01-30T09:51:44;14.35;;;5.85;;
82159;SDS011;71734;50.876;7.372;2024-01-30T09:54:11;12.50;;;5.80;;
82159;SDS011;71734;50.876;7.372;2024-01-30T09:56:40;11.20;;;5.78;;
82159;SDS011;71734;50.876;7.372;2024-01-30T09:59:06;12.40;;;6.00;;
82159;SDS011;71734;50.876;7.372;2024-01-30T10:01:34;10.95;;;5.40;;
82159;SDS011;71734;50.876;7.372;2024-01-30T10:04:03;11.38;;;5.65;;
82159;SDS011;71734;50.876;7.372;2024-01-30T10:06:31;12.55;;;5.50;;
82159;SDS011;71734;50.876;7.372;2024-01-30T10:08:57;13.07;;;5.50;;
82159;SDS011;71734;50.876;7.372;2024-01-30T10:11:24;12.95;;;5.63;;
82159;SDS011;71734;50.876;7.372;2024-01-30T10:13:51;14.25;;;5.70;;
82159;SDS011;71734;50.876;7.372;2024-01-30T10:16:17;10.70;;;5.70;;
82159;SDS011;71734;50.876;7.372;2024-01-30T10:18:44;10.95;;;5.15;;
82159;SDS011;71734;50.876;7.372;2024-01-30T10:21:12;11.73;;;5.55;;
82159;SDS011;71734;50.876;7.372;2024-01-30T10:23:39;10.95;;;5.25;;
82159;SDS011;71734;50.876;7.372;2024-01-30T10:26:06;12.57;;;5.25;;
82159;SDS011;71734;50.876;7.372;2024-01-30T10:28:33;11.75;;;5.55;;
82159;SDS011;71734;50.876;7.372;2024-01-30T10:31:00;13.88;;;6.40;;
82159;SDS011;71734;50.876;7.372;2024-01-30T10:33:27;11.20;;;5.22;;
82159;SDS011;71734;50.876;7.372;2024-01-30T10:35:54;10.07;;;5.03;;
82159;SDS011;71734;50.876;7.372;2024-01-30T10:38:28;10.95;;;5.38;;
82159;SDS011;71734;50.876;7.372;2024-01-30T10:40:56;12.80;;;5.30;;
82159;SDS011;71734;50.876;7.372;2024-01-30T10:43:22;12.32;;;4.93;;
82159;SDS011;71734;50.876;7.372;2024-01-30T10:45:54;11.18;;;5.10;;
82159;SDS011;71734;50.876;7.372;2024-01-30T10:48:28;11.73;;;5.15;;
82159;SDS011;71734;50.876;7.372;2024-01-30T10:50:56;12.55;;;5.63;;
82159;SDS011;71734;50.876;7.372;2024-01-30T10:53:25;12.77;;;5.60;;
82159;SDS011;71734;50.876;7.372;2024-01-30T10:55:55;11.93;;;5.85;;
82159;SDS011;71734;50.876;7.372;2024-01-30T10:58:24;11.73;;;5.28;;
82159;SDS011;71734;50.876;7.372;2024-01-30T11:00:51;11.98;;;5.60;;
82159;SDS011;71734;50.876;7.372;2024-01-30T11:03:18;14.30;;;5.38;;
82159;SDS011;71734;50.876;7.372;2024-01-30T11:05:48;10.60;;;5.45;;
82159;SDS011;71734;50.876;7.372;2024-01-30T11:08:22;13.27;;;5.72;;
82159;SDS011;71734;50.876;7.372;2024-01-30T11:10:54;10.73;;;5.47;;
82159;SDS011;71734;50.876;7.372;2024-01-30T11:13:22;11.15;;;5.68;;
82159;SDS011;71734;50.876;7.372;2024-01-30T11:15:48;11.88;;;4.93;;
82159;SDS011;71734;50.876;7.372;2024-01-30T11:18:22;12.13;;;5.88;;
82159;SDS011;71734;50.876;7.372;2024-01-30T11:20:49;10.60;;;4.95;;
82159;SDS011;71734;50.876;7.372;2024-01-30T11:23:15;10.25;;;5.00;;
82159;SDS011;71734;50.876;7.372;2024-01-30T11:25:43;11.85;;;5.50;;
82159;SDS011;71734;50.876;7.372;2024-01-30T11:28:14;10.02;;;5.10;;
82159;SDS011;71734;50.876;7.372;2024-01-30T11:30:41;14.80;;;5.53;;
82159;SDS011;71734;50.876;7.372;2024-01-30T11:33:08;10.90;;;5.03;;
82159;SDS011;71734;50.876;7.372;2024-01-30T11:35:37;11.25;;;5.63;;
82159;SDS011;71734;50.876;7.372;2024-01-30T11:38:08;10.45;;;4.82;;
82159;SDS011;71734;50.876;7.372;2024-01-30T11:40:37;11.88;;;5.03;;
82159;SDS011;71734;50.876;7.372;2024-01-30T11:43:05;12.02;;;5.05;;
82159;SDS011;71734;50.876;7.372;2024-01-30T11:45:34;10.90;;;4.90;;
82159;SDS011;71734;50.876;7.372;2024-01-30T11:48:01;10.40;;;4.90;;
82159;SDS011;71734;50.876;7.372;2024-01-30T11:50:28;11.40;;;4.80;;
82159;SDS011;71734;50.876;7.372;2024-01-30T11:52:55;10.30;;;5.10;;
82159;SDS011;71734;50.876;7.372;2024-01-30T11:55:23;9.02;;;4.97;;
82159;SDS011;71734;50.876;7.372;2024-01-30T11:57:50;12.02;;;5.20;;
82159;SDS011;71734;50.876;7.372;2024-01-30T12:00:18;11.00;;;5.13;;
82159;SDS011;71734;50.876;7.372;2024-01-30T12:02:50;10.57;;;5.13;;
82159;SDS011;71734;50.876;7.372;2024-01-30T12:05:20;11.02;;;5.30;;
82159;SDS011;71734;50.876;7.372;2024-01-30T12:07:48;13.45;;;5.90;;
82159;SDS011;71734;50.876;7.372;2024-01-30T12:10:14;11.02;;;5.10;;
82159;SDS011;71734;50.876;7.372;2024-01-30T12:12:43;10.95;;;5.28;;
82159;SDS011;71734;50.876;7.372;2024-01-30T12:15:56;10.35;;;4.72;;
82159;SDS011;71734;50.876;7.372;2024-01-30T12:18:22;9.85;;;4.45;;
82159;SDS011;71734;50.876;7.372;2024-01-30T12:20:56;9.27;;;4.32;;
82159;SDS011;71734;50.876;7.372;2024-01-30T12:23:23;9.88;;;4.85;;
82159;SDS011;71734;50.876;7.372;2024-01-30T12:25:50;11.43;;;5.10;;
82159;SDS011;71734;50.876;7.372;2024-01-30T12:28:17;10.10;;;4.63;;
82159;SDS011;71734;50.876;7.372;2024-01-30T12:30:44;10.25;;;5.07;;
82159;SDS011;71734;50.876;7.372;2024-01-30T12:33:15;10.48;;;4.80;;
82159;SDS011;71734;50.876;7.372;2024-01-30T12:35:46;9.40;;;4.43;;
82159;SDS011;71734;50.876;7.372;2024-01-30T12:40:39;10.60;;;4.43;;
82159;SDS011;71734;50.876;7.372;2024-01-30T12:43:06;10.77;;;4.57;;
82159;SDS011;71734;50.876;7.372;2024-01-30T12:45:33;10.05;;;4.90;;
82159;SDS011;71734;50.876;7.372;2024-01-30T12:47:59;10.20;;;4.68;;
82159;SDS011;71734;50.876;7.372;2024-01-30T12:50:26;11.98;;;4.95;;
82159;SDS011;71734;50.876;7.372;2024-01-30T12:52:54;10.40;;;4.80;;
82159;SDS011;71734;50.876;7.372;2024-01-30T12:55:21;9.85;;;4.50;;
82159;SDS011;71734;50.876;7.372;2024-01-30T12:57:47;10.60;;;4.88;;
82159;SDS011;71734;50.876;7.372;2024-01-30T13:00:14;10.15;;;5.15;;
82159;SDS011;71734;50.876;7.372;2024-01-30T13:02:41;10.10;;;4.82;;
82159;SDS011;71734;50.876;7.372;2024-01-30T13:05:09;12.02;;;4.90;;
82159;SDS011;71734;50.876;7.372;2024-01-30T13:07:36;16.17;;;6.22;;
82159;SDS011;71734;50.876;7.372;2024-01-30T13:10:04;11.70;;;5.35;;
82159;SDS011;71734;50.876;7.372;2024-01-30T13:12:32;10.55;;;4.60;;
82159;SDS011;71734;50.876;7.372;2024-01-30T13:14:58;10.40;;;4.82;;
82159;SDS011;71734;50.876;7.372;2024-01-30T13:17:26;10.73;;;4.68;;
82159;SDS011;71734;50.876;7.372;2024-01-30T13:19:52;10.57;;;4.93;;
82159;SDS011;71734;50.876;7.372;2024-01-30T13:22:19;9.95;;;4.78;;
82159;SDS011;71734;50.876;7.372;2024-01-30T13:24:46;10.13;;;4.90;;
82159;SDS011;71734;50.876;7.372;2024-01-30T13:27:14;12.30;;;5.10;;
82159;SDS011;71734;50.876;7.372;2024-01-30T13:29:40;10.50;;;5.30;;
82159;SDS011;71734;50.876;7.372;2024-01-30T13:32:07;9.50;;;4.82;;
82159;SDS011;71734;50.876;7.372;2024-01-30T13:34:33;13.50;;;5.15;;
82159;SDS011;71734;50.876;7.372;2024-01-30T13:37:00;10.02;;;4.90;;
82159;SDS011;71734;50.876;7.372;2024-01-30T13:39:26;11.88;;;4.95;;
82159;SDS011;71734;50.876;7.372;2024-01-30T13:41:54;10.55;;;5.10;;
82159;SDS011;71734;50.876;7.372;2024-01-30T13:44:22;10.75;;;4.88;;
82159;SDS011;71734;50.876;7.372;2024-01-30T13:46:48;9.95;;;5.18;;
82159;SDS011;71734;50.876;7.372;2024-01-30T13:49:14;10.40;;;5.18;;
82159;SDS011;71734;50.876;7.372;2024-01-30T13:51:41;9.88;;;5.03;;
82159;SDS011;71734;50.876;7.372;2024-01-30T13:54:08;11.25;;;5.00;;
82159;SDS011;71734;50.876;7.372;2024-01-30T13:56:34;10.80;;;5.50;;
82159;SDS011;71734;50.876;7.372;2024-01-30T13:59:01;11.70;;;5.18;;
82159;SDS011;71734;50.876;7.372;2024-01-30T14:01:31;9.90;;;4.53;;
82159;SDS011;71734;50.876;7.372;2024-01-30T14:03:57;10.32;;;4.85;;
82159;SDS011;71734;50.876;7.372;2024-01-30T14:06:24;10.13;;;4.63;;
82159;SDS011;71734;50.876;7.372;2024-01-30T14:08:51;10.60;;;4.93;;
82159;SDS011;71734;50.876;7.372;2024-01-30T14:11:17;10.18;;;4.50;;
82159;SDS011;71734;50.876;7.372;2024-01-30T14:13:44;11.05;;;4.72;;
82159;SDS011;71734;50.876;7.372;2024-01-30T14:16:12;9.63;;;5.00;;
82159;SDS011;71734;50.876;7.372;2024-01-30T14:18:40;13.10;;;4.68;;
82159;SDS011;71734;50.876;7.372;2024-01-30T14:21:06;11.48;;;4.97;;
82159;SDS011;71734;50.876;7.372;2024-01-30T14:23:33;9.90;;;5.03;;
82159;SDS011;71734;50.876;7.372;2024-01-30T14:25:59;10.25;;;5.00;;
82159;SDS011;71734;50.876;7.372;2024-01-30T14:28:26;9.00;;;4.82;;
82159;SDS011;71734;50.876;7.372;2024-01-30T14:30:53;9.52;;;4.88;;
82159;SDS011;71734;50.876;7.372;2024-01-30T14:33:19;10.05;;;5.13;;
82159;SDS011;71734;50.876;7.372;2024-01-30T14:35:47;12.07;;;5.50;;
82159;SDS011;71734;50.876;7.372;2024-01-30T14:38:13;10.10;;;4.85;;